createdAt,value
2018-09-10T00:01:33.142Z,101655.44
2018-09-10T00:04:01.540Z,101654.72
2018-09-10T00:06:29.903Z,101654.72
2018-09-10T00:08:58.699Z,101658.02
2018-09-10T00:11:27.055Z,101660.36
2018-09-10T00:13:55.370Z,101655.79
2018-09-10T00:16:24.738Z,101653.95
2018-09-10T00:18:53.120Z,101666.16
2018-09-10T00:21:21.595Z,101661.80
2018-09-10T00:23:49.912Z,101659.73
2018-09-10T00:26:18.251Z,101660.76
2018-09-10T00:28:46.588Z,101661.88
2018-09-10T00:31:14.942Z,101662.12
2018-09-10T00:33:43.244Z,101665.40
2018-09-10T00:36:11.594Z,101664.83
2018-09-10T00:38:39.942Z,101659.75
2018-09-10T00:41:08.312Z,101669.52
2018-09-10T00:43:36.661Z,101669.12
2018-09-10T00:46:05.009Z,101672.38
2018-09-10T00:48:33.356Z,101668.22
2018-09-10T00:51:01.738Z,101666.91
2018-09-10T00:53:30.122Z,101676.92
2018-09-10T00:55:58.467Z,101671.98
2018-09-10T00:58:26.814Z,101677.01
2018-09-10T01:00:55.158Z,101676.82
2018-09-10T01:03:23.499Z,101675.85
2018-09-10T01:05:51.836Z,101671.50
2018-09-10T01:08:20.176Z,101670.63
2018-09-10T01:10:48.537Z,101665.36
2018-09-10T01:13:16.870Z,101666.72
2018-09-10T01:15:45.235Z,101664.78
2018-09-10T01:18:13.557Z,101667.09
2018-09-10T01:20:42.109Z,101667.09
2018-09-10T01:23:10.452Z,101674.48
2018-09-10T01:25:38.779Z,101675.30
2018-09-10T01:28:08.733Z,101666.70
2018-09-10T01:30:37.093Z,101658.44
2018-09-10T01:33:09.241Z,101654.68
2018-09-10T01:35:37.634Z,101649.88
2018-09-10T01:38:05.989Z,101649.59
2018-09-10T01:40:34.343Z,101648.00
2018-09-10T01:43:02.688Z,101655.73
2018-09-10T01:45:31.025Z,101656.13
2018-09-10T01:47:59.400Z,101661.05
2018-09-10T01:50:27.929Z,101660.91
2018-09-10T01:52:56.280Z,101650.95
2018-09-10T01:55:24.628Z,101644.96
2018-09-10T01:57:53.476Z,101625.79
2018-09-10T02:00:21.853Z,101627.08
2018-09-10T02:02:50.204Z,101624.62
2018-09-10T02:05:18.568Z,101627.47
2018-09-10T02:07:46.905Z,101629.61
2018-09-10T02:10:15.252Z,101629.94
2018-09-10T02:12:43.615Z,101634.48
2018-09-10T02:15:11.957Z,101633.61
2018-09-10T02:17:40.259Z,101635.92
2018-09-10T02:20:08.622Z,101633.91
2018-09-10T02:22:36.994Z,101631.78
2018-09-10T02:25:05.314Z,101634.33
2018-09-10T02:27:33.762Z,101629.64
2018-09-10T02:31:26.462Z,101633.37
2018-09-10T02:33:54.797Z,101626.27
2018-09-10T02:36:23.130Z,101634.48
2018-09-10T02:38:51.476Z,101635.20
2018-09-10T02:41:19.836Z,101632.59
2018-09-10T02:43:48.176Z,101643.47
2018-09-10T02:46:16.499Z,101645.70
2018-09-10T02:48:44.820Z,101647.47
2018-09-10T02:51:13.173Z,101653.67
2018-09-10T02:53:41.516Z,101648.59
2018-09-10T02:56:10.047Z,101645.64
2018-09-10T02:58:38.591Z,101641.10
2018-09-10T03:01:06.940Z,101636.95
2018-09-10T03:03:35.476Z,101638.63
2018-09-10T03:06:03.833Z,101636.31
2018-09-10T03:08:32.162Z,101634.24
2018-09-10T03:11:00.505Z,101634.81
2018-09-10T03:13:28.855Z,101645.94
2018-09-10T03:15:57.168Z,101629.22
2018-09-10T03:18:25.494Z,101630.33
2018-09-10T03:20:53.836Z,101631.62
2018-09-10T03:23:22.170Z,101629.70
2018-09-10T03:25:50.593Z,101627.72
2018-09-10T03:28:19.570Z,101631.30
2018-09-10T03:30:47.889Z,101633.91
2018-09-10T03:33:16.238Z,101638.15
2018-09-10T03:35:44.604Z,101643.56
2018-09-10T03:38:12.972Z,101644.47
2018-09-10T03:40:41.339Z,101642.65
2018-09-10T03:43:09.685Z,101642.89
2018-09-10T03:45:38.034Z,101640.91
2018-09-10T03:48:06.411Z,101642.26
2018-09-10T03:50:34.745Z,101640.37
2018-09-10T03:53:03.124Z,101642.83
2018-09-10T03:55:31.483Z,101638.42
2018-09-10T03:57:59.827Z,101642.73
2018-09-10T04:00:28.236Z,101646.07
2018-09-10T04:02:56.588Z,101644.62
2018-09-10T04:05:24.927Z,101640.88
2018-09-10T04:07:53.300Z,101636.97
2018-09-10T04:10:21.647Z,101639.14
2018-09-10T04:12:49.995Z,101633.30
2018-09-10T04:15:18.334Z,101634.11
2018-09-10T04:17:46.679Z,101633.25
2018-09-10T04:20:15.018Z,101634.52
2018-09-10T04:22:44.185Z,101640.63
2018-09-10T04:25:12.540Z,101645.08
2018-09-10T04:27:40.884Z,101638.55
2018-09-10T04:30:13.318Z,101638.55
2018-09-10T04:32:42.646Z,101633.77
2018-09-10T04:35:11.643Z,101631.06
2018-09-10T04:37:40.605Z,101628.88
2018-09-10T04:40:08.992Z,101632.03
2018-09-10T04:42:37.372Z,101635.97
2018-09-10T04:45:06.017Z,101627.48
2018-09-10T04:47:34.400Z,101631.31
2018-09-10T04:50:03.154Z,101628.61
2018-09-10T04:52:31.572Z,101625.66
2018-09-10T04:54:59.982Z,101628.36
2018-09-10T04:57:28.346Z,101628.61
2018-09-10T04:59:56.709Z,101634.98
2018-09-10T05:02:25.052Z,101639.67
2018-09-10T05:04:53.412Z,101640.55
2018-09-10T05:07:21.770Z,101643.64
2018-09-10T05:09:50.223Z,101637.61
2018-09-10T05:12:18.456Z,101642.48
2018-09-10T05:14:46.824Z,101636.50
2018-09-10T05:17:15.200Z,101640.02
2018-09-10T05:19:43.535Z,101647.03
2018-09-10T05:22:11.900Z,101647.81
2018-09-10T05:24:40.229Z,101646.27
2018-09-10T05:27:08.601Z,101643.07
2018-09-10T05:29:36.932Z,101648.02
2018-09-10T05:32:05.322Z,101655.80
2018-09-10T05:34:33.707Z,101650.00
2018-09-10T05:37:02.087Z,101648.34
2018-09-10T05:39:30.439Z,101650.57
2018-09-10T05:41:58.813Z,101642.69
2018-09-10T05:44:27.299Z,101649.70
2018-09-10T05:46:55.692Z,101645.78
2018-09-10T05:49:24.050Z,101660.28
2018-09-10T05:51:52.495Z,101656.13
2018-09-10T05:54:20.836Z,101662.75
2018-09-10T05:56:49.281Z,101661.58
2018-09-10T05:59:18.130Z,101665.55
2018-09-10T06:01:46.526Z,101657.97
2018-09-10T06:04:15.024Z,101663.32
2018-09-10T06:06:43.550Z,101660.04
2018-09-10T06:09:12.099Z,101660.52
2018-09-10T06:11:40.487Z,101668.02
2018-09-10T06:14:08.990Z,101661.03
2018-09-10T06:16:37.490Z,101650.95
2018-09-10T06:19:05.857Z,101654.37
2018-09-10T06:21:34.457Z,101654.83
2018-09-10T06:24:02.858Z,101652.94
2018-09-10T06:26:31.238Z,101653.41
2018-09-10T06:28:59.577Z,101653.11
2018-09-10T06:31:27.902Z,101648.09
2018-09-10T06:33:56.736Z,101646.91
2018-09-10T06:36:25.711Z,101642.88
2018-09-10T06:38:54.528Z,101641.39
2018-09-10T06:41:23.084Z,101633.94
2018-09-10T06:43:51.665Z,101627.23
2018-09-10T06:46:20.064Z,101628.97
2018-09-10T06:48:49.196Z,101633.66
2018-09-10T06:51:17.584Z,101627.73
2018-09-10T06:53:45.950Z,101636.53
2018-09-10T06:56:14.292Z,101631.67
2018-09-10T06:58:42.672Z,101635.20
2018-09-10T07:01:11.053Z,101635.76
2018-09-10T07:03:39.486Z,101636.75
2018-09-10T07:06:07.901Z,101632.13
2018-09-10T07:08:36.281Z,101636.69
2018-09-10T07:11:04.742Z,101627.52
2018-09-10T07:13:33.144Z,101625.59
2018-09-10T07:16:01.533Z,101635.27
2018-09-10T07:18:30.019Z,101634.58
2018-09-10T07:20:58.375Z,101630.64
2018-09-10T07:23:26.722Z,101621.97
2018-09-10T07:25:55.087Z,101624.73
2018-09-10T07:28:23.459Z,101626.83
2018-09-10T07:30:52.356Z,101626.85
2018-09-10T07:33:20.696Z,101625.48
2018-09-10T07:35:49.063Z,101623.47
2018-09-10T07:38:17.413Z,101615.97
2018-09-10T07:40:45.835Z,101627.13
2018-09-10T07:43:14.182Z,101628.63
2018-09-10T07:45:42.620Z,101628.21
2018-09-10T07:48:10.995Z,101625.53
2018-09-10T07:50:39.379Z,101619.09
2018-09-10T07:53:07.729Z,101620.96
2018-09-10T07:55:36.119Z,101620.59
2018-09-10T07:58:04.549Z,101616.70
2018-09-10T08:00:33.755Z,101620.43
2018-09-10T08:03:02.210Z,101623.72
2018-09-10T08:05:30.571Z,101625.38
2018-09-10T08:07:58.952Z,101618.38
2018-09-10T08:10:27.318Z,101615.84
2018-09-10T08:12:55.707Z,101602.61
2018-09-10T08:15:24.087Z,101596.32
2018-09-10T08:17:52.454Z,101604.45
2018-09-10T08:20:20.801Z,101606.87
2018-09-10T08:22:49.208Z,101607.73
2018-09-10T08:25:17.660Z,101600.97
2018-09-10T08:27:45.985Z,101602.55
2018-09-10T08:30:14.431Z,101608.73
2018-09-10T08:32:42.832Z,101607.23
2018-09-10T08:35:11.190Z,101615.98
2018-09-10T08:37:39.563Z,101609.61
2018-09-10T08:40:07.999Z,101608.67
2018-09-10T08:42:36.370Z,101610.42
2018-09-10T08:45:05.181Z,101603.20
2018-09-10T08:47:33.510Z,101601.40
2018-09-10T08:50:01.890Z,101602.78
2018-09-10T08:52:30.238Z,101597.98
2018-09-10T08:54:59.016Z,101589.09
2018-09-10T08:57:27.000Z,101595.20
2018-09-10T08:59:55.355Z,101593.59
2018-09-10T09:02:23.700Z,101593.89
2018-09-10T09:04:52.067Z,101601.42
2018-09-10T09:07:20.416Z,101591.20
2018-09-10T09:09:48.768Z,101602.72
2018-09-10T09:12:17.085Z,101598.80
2018-09-10T09:14:45.449Z,101598.16
2018-09-10T09:17:13.803Z,101596.05
2018-09-10T09:19:42.136Z,101597.34
2018-09-10T09:22:10.564Z,101593.45
2018-09-10T09:24:38.946Z,101597.86
2018-09-10T09:27:07.289Z,101594.47
2018-09-10T09:29:35.864Z,101586.89
2018-09-10T09:32:04.271Z,101587.52
2018-09-10T09:34:37.820Z,101582.78
2018-09-10T09:37:11.483Z,101570.36
2018-09-10T09:39:45.214Z,101568.88
2018-09-10T09:42:18.880Z,101573.42
2018-09-10T09:44:52.560Z,101568.80
2018-09-10T09:47:20.912Z,101565.19
2018-09-10T09:49:49.331Z,101561.52
2018-09-10T09:52:17.718Z,101563.46
2018-09-10T09:54:46.087Z,101555.85
2018-09-10T09:57:14.432Z,101562.92
2018-09-10T09:59:42.782Z,101555.13
2018-09-10T10:02:16.461Z,101557.30
2018-09-10T10:04:44.807Z,101560.81
2018-09-10T10:07:13.215Z,101560.54
2018-09-10T10:09:41.584Z,101557.81
2018-09-10T10:12:09.997Z,101553.90
2018-09-10T10:14:38.336Z,101549.39
2018-09-10T10:17:06.715Z,101547.31
2018-09-10T10:19:35.084Z,101546.58
2018-09-10T10:22:03.513Z,101546.51
2018-09-10T10:24:31.891Z,101548.51
2018-09-10T10:27:00.391Z,101544.99
2018-09-10T10:29:28.735Z,101553.41
2018-09-10T10:31:57.101Z,101551.87
2018-09-10T10:34:25.451Z,101545.47
2018-09-10T10:36:54.006Z,101535.64
2018-09-10T10:39:22.426Z,101538.88
2018-09-10T10:41:50.753Z,101542.16
2018-09-10T10:44:19.112Z,101533.88
2018-09-10T10:46:47.473Z,101535.05
2018-09-10T10:49:15.830Z,101527.47
2018-09-10T10:51:44.217Z,101526.88
2018-09-10T10:54:12.593Z,101517.05
2018-09-10T10:56:41.197Z,101521.63
2018-09-10T10:59:09.547Z,101524.42
2018-09-10T11:01:37.896Z,101522.19
2018-09-10T11:04:06.258Z,101520.11
2018-09-10T11:06:34.650Z,101518.94
2018-09-10T11:09:03.021Z,101526.52
2018-09-10T11:11:31.385Z,101528.60
2018-09-10T11:13:59.743Z,101523.98
2018-09-10T11:16:28.124Z,101525.58
2018-09-10T11:18:56.477Z,101529.41
2018-09-10T11:21:24.989Z,101527.00
2018-09-10T11:23:53.349Z,101532.39
2018-09-10T11:26:21.722Z,101526.98
2018-09-10T11:28:50.056Z,101524.92
2018-09-10T11:31:18.434Z,101527.02
2018-09-10T11:33:47.044Z,101531.83
2018-09-10T11:36:15.381Z,101523.06
2018-09-10T11:38:43.718Z,101525.25
2018-09-10T11:41:12.070Z,101526.58
2018-09-10T11:43:40.476Z,101522.41
2018-09-10T11:46:08.838Z,101523.95
2018-09-10T11:48:37.204Z,101524.13
2018-09-10T11:51:05.575Z,101520.66
2018-09-10T11:53:34.058Z,101525.37
2018-09-10T11:56:02.497Z,101530.81
2018-09-10T11:58:31.354Z,101525.25
2018-09-10T12:00:59.712Z,101527.23
2018-09-10T12:03:28.065Z,101522.67
2018-09-10T12:05:56.386Z,101524.83
2018-09-10T12:08:24.988Z,101521.80
2018-09-10T12:10:53.530Z,101520.06
2018-09-10T12:13:21.988Z,101517.67
2018-09-10T12:15:50.865Z,101527.59
2018-09-10T12:18:19.254Z,101525.33
2018-09-10T12:20:47.622Z,101525.13
2018-09-10T12:23:15.997Z,101529.31
2018-09-10T12:25:44.524Z,101528.39
2018-09-10T12:28:12.903Z,101519.48
2018-09-10T12:30:41.727Z,101517.78
2018-09-10T12:33:10.235Z,101520.31
2018-09-10T12:35:38.585Z,101519.97
2018-09-10T12:38:06.949Z,101520.88
2018-09-10T12:40:35.325Z,101505.47
2018-09-10T12:43:03.684Z,101504.89
2018-09-10T12:45:32.253Z,101512.79
2018-09-10T12:48:00.769Z,101497.31
2018-09-10T12:50:29.140Z,101512.80
2018-09-10T12:52:57.526Z,101504.16
2018-09-10T12:55:25.923Z,101507.81
2018-09-10T12:57:54.309Z,101512.52
2018-09-10T13:00:22.719Z,101512.35
2018-09-10T13:02:51.091Z,101505.38
2018-09-10T13:05:19.451Z,101507.62
2018-09-10T13:07:47.983Z,101502.91
2018-09-10T13:10:16.333Z,101499.66
2018-09-10T13:12:44.992Z,101499.72
2018-09-10T13:15:13.352Z,101498.28
2018-09-10T13:17:41.875Z,101491.34
2018-09-10T13:20:10.314Z,101500.01
2018-09-10T13:22:38.702Z,101497.48
2018-09-10T13:25:07.972Z,101495.47
2018-09-10T13:27:36.371Z,101498.92
2018-09-10T13:30:05.113Z,101499.59
2018-09-10T13:32:33.454Z,101501.83
2018-09-10T13:35:01.928Z,101505.88
2018-09-10T13:37:30.401Z,101502.14
2018-09-10T13:39:58.847Z,101500.53
2018-09-10T13:42:27.656Z,101505.59
2018-09-10T13:44:55.983Z,101513.13
2018-09-10T13:47:24.921Z,101518.03
2018-09-10T13:49:53.302Z,101518.20
2018-09-10T13:52:21.618Z,101524.13
2018-09-10T13:54:50.023Z,101522.68
2018-09-10T13:57:18.396Z,101523.03
2018-09-10T13:59:46.876Z,101516.52
2018-09-10T14:02:15.164Z,101513.75
2018-09-10T14:06:12.662Z,101513.69
2018-09-10T14:08:41.043Z,101501.20
2018-09-10T14:11:09.395Z,101497.95
2018-09-10T14:13:37.787Z,101504.97
2018-09-10T14:16:06.354Z,101507.14
2018-09-10T14:18:34.733Z,101508.88
2018-09-10T14:21:03.075Z,101509.96
2018-09-10T14:23:31.488Z,101503.37
2018-09-10T14:25:59.873Z,101507.84
2018-09-10T14:28:28.325Z,101495.70
2018-09-10T14:30:57.496Z,101491.88
2018-09-10T14:33:25.895Z,101490.28
2018-09-10T14:35:54.853Z,101498.88
2018-09-10T14:38:23.285Z,101496.36
2018-09-10T14:40:51.663Z,101493.09
2018-09-10T14:43:19.993Z,101486.67
2018-09-10T14:45:48.506Z,101505.43
2018-09-10T14:48:16.884Z,101506.80
2018-09-10T14:50:45.303Z,101499.77
2018-09-10T14:53:13.714Z,101501.64
2018-09-10T14:55:42.092Z,101500.09
2018-09-10T14:58:10.439Z,101496.95
2018-09-10T15:00:38.849Z,101495.97
2018-09-10T15:03:07.196Z,101493.78
2018-09-10T15:05:35.567Z,101493.78
2018-09-10T15:08:04.017Z,101499.47
2018-09-10T15:10:32.395Z,101498.33
2018-09-10T15:13:00.953Z,101505.59
2018-09-10T15:15:29.331Z,101499.00
2018-09-10T15:17:57.709Z,101506.06
2018-09-10T15:20:26.748Z,101510.69
2018-09-10T15:22:55.109Z,101512.53
2018-09-10T15:25:23.498Z,101506.67
2018-09-10T15:27:51.884Z,101506.35
2018-09-10T15:30:20.281Z,101512.68
2018-09-10T15:32:48.932Z,101520.91
2018-09-10T15:35:17.386Z,101514.05
2018-09-10T15:37:45.762Z,101507.96
2018-09-10T15:40:14.172Z,101511.21
2018-09-10T15:42:42.521Z,101517.05
2018-09-10T15:45:10.964Z,101518.42
2018-09-10T15:47:39.246Z,101518.06
2018-09-10T15:50:07.790Z,101513.20
2018-09-10T15:52:36.284Z,101498.76
2018-09-10T15:55:04.651Z,101501.02
2018-09-10T15:57:33.056Z,101496.78
2018-09-10T16:00:01.392Z,101499.55
2018-09-10T16:02:29.758Z,101496.66
2018-09-10T16:04:59.956Z,101488.38
2018-09-10T16:07:28.368Z,101493.26
2018-09-10T16:09:56.767Z,101498.23
2018-09-10T16:12:25.228Z,101499.15
2018-09-10T16:14:53.733Z,101502.66
2018-09-10T16:17:22.090Z,101504.83
2018-09-10T16:19:50.406Z,101514.93
2018-09-10T16:22:18.768Z,101512.70
2018-09-10T16:26:11.524Z,101516.05
2018-09-10T16:28:39.855Z,101524.56
2018-09-10T16:31:08.192Z,101521.71
2018-09-10T16:33:36.540Z,101531.20
2018-09-10T16:36:04.914Z,101529.61
2018-09-10T16:38:33.293Z,101527.63
2018-09-10T16:41:01.707Z,101525.89
2018-09-10T16:43:30.017Z,101538.43
2018-09-10T16:45:58.417Z,101542.42
2018-09-10T16:48:26.836Z,101541.95
2018-09-10T16:50:55.111Z,101553.05
2018-09-10T16:53:23.415Z,101552.92
2018-09-10T16:55:51.796Z,101553.16
2018-09-10T16:58:20.157Z,101548.81
2018-09-10T17:00:49.441Z,101556.05
2018-09-10T17:03:17.701Z,101552.95
2018-09-10T17:05:46.045Z,101549.83
2018-09-10T17:08:14.380Z,101542.51
2018-09-10T17:10:42.800Z,101538.53
2018-09-10T17:13:11.220Z,101530.84
2018-09-10T17:15:39.728Z,101531.19
2018-09-10T17:18:08.312Z,101537.66
2018-09-10T17:20:36.691Z,101534.42
2018-09-10T17:23:05.041Z,101529.11
2018-09-10T17:25:33.456Z,101525.25
2018-09-10T17:28:01.782Z,101523.76
2018-09-10T17:30:30.203Z,101528.31
2018-09-10T17:32:58.589Z,101530.05
2018-09-10T17:35:26.949Z,101531.16
2018-09-10T17:37:55.343Z,101534.77
2018-09-10T17:40:23.703Z,101534.91
2018-09-10T17:42:52.040Z,101540.47
2018-09-10T17:45:20.388Z,101541.72
2018-09-10T17:47:48.713Z,101541.22
2018-09-10T17:50:17.118Z,101543.19
2018-09-10T17:52:45.505Z,101553.13
2018-09-10T17:55:13.851Z,101557.86
2018-09-10T17:57:42.256Z,101559.23
2018-09-10T18:00:10.664Z,101568.16
2018-09-10T18:02:39.175Z,101572.13
2018-09-10T18:05:07.691Z,101575.86
2018-09-10T18:07:36.057Z,101576.46
2018-09-10T18:10:04.476Z,101578.83
2018-09-10T18:12:32.827Z,101578.83
2018-09-10T18:15:01.154Z,101587.52
2018-09-10T18:17:29.561Z,101592.22
2018-09-10T18:19:57.904Z,101588.75
2018-09-10T18:22:26.299Z,101586.25
2018-09-10T18:24:54.692Z,101580.02
2018-09-10T18:27:23.035Z,101588.21
2018-09-10T18:29:51.498Z,101596.27
2018-09-10T18:32:19.849Z,101600.59
2018-09-10T18:34:48.205Z,101596.90
2018-09-10T18:37:16.545Z,101601.23
2018-09-10T18:39:44.904Z,101604.95
2018-09-10T18:42:13.253Z,101599.55
2018-09-10T18:44:41.604Z,101594.35
2018-09-10T18:47:10.485Z,101598.17
2018-09-10T18:49:38.810Z,101593.57
2018-09-10T18:52:07.492Z,101597.02
2018-09-10T18:54:35.845Z,101602.71
2018-09-10T18:57:04.227Z,101607.31
2018-09-10T18:59:32.628Z,101613.51
2018-09-10T19:02:00.992Z,101615.85
2018-09-10T19:04:29.360Z,101609.53
2018-09-10T19:06:57.764Z,101607.02
2018-09-10T19:09:26.116Z,101607.11
2018-09-10T19:11:54.522Z,101611.06
2018-09-10T19:14:22.861Z,101614.27
2018-09-10T19:16:51.244Z,101599.97
2018-09-10T19:19:19.692Z,101606.06
2018-09-10T19:21:48.037Z,101618.56
2018-09-10T19:24:16.419Z,101624.02
2018-09-10T19:26:44.794Z,101618.91
2018-09-10T19:29:13.173Z,101613.80
2018-09-10T19:31:41.552Z,101615.03
2018-09-10T19:34:09.944Z,101620.06
2018-09-10T19:36:38.341Z,101619.41
2018-09-10T19:39:09.012Z,101618.33
2018-09-10T19:41:37.389Z,101611.50
2018-09-10T19:44:05.856Z,101615.58
2018-09-10T19:46:34.253Z,101619.52
2018-09-10T19:49:02.664Z,101622.95
2018-09-10T19:51:31.557Z,101624.84
2018-09-10T19:53:59.895Z,101629.43
2018-09-10T19:56:28.310Z,101631.29
2018-09-10T19:58:56.651Z,101619.32
2018-09-10T20:01:25.030Z,101610.02
2018-09-10T20:03:53.521Z,101597.34
2018-09-10T20:06:21.895Z,101587.70
2018-09-10T20:08:50.279Z,101600.19
2018-09-10T20:11:18.689Z,101614.91
2018-09-10T20:13:47.067Z,101613.95
2018-09-10T20:16:15.407Z,101607.13
2018-09-10T20:18:44.609Z,101610.13
2018-09-10T20:21:13.023Z,101609.14
2018-09-10T20:23:41.379Z,101599.44
2018-09-10T20:26:09.808Z,101602.94
2018-09-10T20:28:38.165Z,101596.05
2018-09-10T20:31:06.777Z,101592.80
2018-09-10T20:33:40.516Z,101590.06
2018-09-10T20:36:08.964Z,101588.05
2018-09-10T20:38:37.314Z,101596.02
2018-09-10T20:41:05.720Z,101608.79
2018-09-10T20:43:34.132Z,101600.86
2018-09-10T20:46:02.523Z,101596.27
2018-09-10T20:48:30.860Z,101591.44
2018-09-10T20:50:59.204Z,101594.59
2018-09-10T20:53:27.556Z,101594.34
2018-09-10T20:55:55.917Z,101597.15
2018-09-10T20:58:24.296Z,101587.11
2018-09-10T21:00:52.669Z,101592.14
2018-09-10T21:03:21.038Z,101591.11
2018-09-10T21:05:49.385Z,101597.43
2018-09-10T21:08:17.844Z,101597.84
2018-09-10T21:10:46.281Z,101601.94
2018-09-10T21:13:14.779Z,101600.57
2018-09-10T21:15:43.143Z,101600.64
2018-09-10T21:18:11.648Z,101596.23
2018-09-10T21:20:40.044Z,101600.64
2018-09-10T21:23:08.426Z,101608.91
2018-09-10T21:25:36.829Z,101607.98
2018-09-10T21:28:05.238Z,101606.80
2018-09-10T21:30:33.616Z,101608.48
2018-09-10T21:33:02.013Z,101602.73
2018-09-10T21:35:30.392Z,101599.52
2018-09-10T21:37:59.438Z,101602.19
2018-09-10T21:40:27.837Z,101596.08
2018-09-10T21:42:56.301Z,101595.13
2018-09-10T21:45:24.649Z,101590.34
2018-09-10T21:47:53.104Z,101596.89
2018-09-10T21:50:22.506Z,101601.55
2018-09-10T21:52:50.929Z,101600.52
2018-09-10T21:55:19.483Z,101601.58
2018-09-10T21:57:47.860Z,101601.70
2018-09-10T22:00:16.680Z,101606.09
2018-09-10T22:02:45.148Z,101611.17
2018-09-10T22:05:13.572Z,101613.48
2018-09-10T22:07:42.399Z,101620.52
2018-09-10T22:10:10.856Z,101618.75
2018-09-10T22:12:39.648Z,101617.38
2018-09-10T22:15:08.047Z,101610.81
2018-09-10T22:17:36.711Z,101610.40
2018-09-10T22:20:05.191Z,101617.44
2018-09-10T22:22:33.800Z,101611.32
2018-09-10T22:25:02.176Z,101606.94
2018-09-10T22:27:30.540Z,101604.71
2018-09-10T22:29:58.956Z,101603.47
2018-09-10T22:32:27.359Z,101608.50
2018-09-10T22:34:55.758Z,101613.76
2018-09-10T22:37:24.115Z,101617.47
2018-09-10T22:39:52.467Z,101616.97
2018-09-10T22:42:21.428Z,101619.02
2018-09-10T22:44:49.909Z,101613.38
2018-09-10T22:47:18.760Z,101625.63
2018-09-10T22:49:47.148Z,101633.04
2018-09-10T22:52:15.514Z,101631.07
2018-09-10T22:54:43.862Z,101634.17
2018-09-10T22:57:12.203Z,101624.58
2018-09-10T22:59:40.552Z,101630.31
2018-09-10T23:02:08.924Z,101638.07
2018-09-10T23:04:37.292Z,101633.92
2018-09-10T23:07:05.691Z,101628.59
2018-09-10T23:09:34.089Z,101639.66
2018-09-10T23:12:02.457Z,101638.57
2018-09-10T23:14:30.788Z,101643.93
2018-09-10T23:16:59.271Z,101638.38
2018-09-10T23:19:27.609Z,101642.55
2018-09-10T23:21:55.968Z,101643.83
2018-09-10T23:24:24.344Z,101637.48
2018-09-10T23:26:52.723Z,101638.16
2018-09-10T23:29:21.063Z,101638.66
2018-09-10T23:31:49.413Z,101633.81
2018-09-10T23:34:17.765Z,101636.23
2018-09-10T23:36:46.107Z,101639.52
2018-09-10T23:39:14.757Z,101644.89
2018-09-10T23:41:43.827Z,101646.63
2018-09-10T23:44:12.341Z,101641.87
2018-09-10T23:46:40.768Z,101641.98
2018-09-10T23:49:09.164Z,101642.77
2018-09-10T23:51:37.517Z,101640.63
2018-09-10T23:54:05.866Z,101636.34
2018-09-10T23:56:34.238Z,101639.56
2018-09-10T23:59:02.610Z,101647.42
